Portada
METAR-TAF:

METAR-TAF

Aeroports :

Saga, Japó

latitud: 33-09N, longitud: 130-18E, altitud: 2 m

Observació

L'informe es va fer fa 27 minuts, a les 01:00 UTC
Vent 10 kt del Oest/Nord-Oest
Temperatura 14°C
Humitat 82%
Pressió 1025 hPa
Visibilitat 10 km o més
Escasses núvols a una alçada de 2000 ft
Núvols disperses a una alçada de 4000 ft
Cel ennuvolat

METAR: RJFS 220100Z 29010KT 9999 FEW020 SCT040 BKN/// 14/11 Q1025

Hora: 10:27 (01:27 UTC)

Pronòstic

L'informe es va fer fa 2 hores i 19 minuts, a les 23:08 UTC
Pronòstic vàlid del 22 a les 00 UTC al 23 a les 06 UTC
Vent 15 kt del Oest/Nord-Oest
Visibilitat 10 km o més
Escasses núvols a una alçada de 3000 ft
Núvols disperses a una alçada de 4000 ft

TAF: RJFS 212308Z 2200/2306 30015KT 9999 FEW030 SCT040

Observacions i pronòstics meteorològics de més de 4000 aeroports (METAR i TAF).

Les estacions disponibles són els punts grocs i vermells al mapa.

Posi el ratolí al punt desitjat per veure el nom de l'estació.

Feu clic per veure les observacions i els pronòstics meteorològics.

Per canviar el mapa: feu clic els botons verds amb una creu de color negre per apropar; al botó verd amb un guió per allunyar la imatge; o en les fletxes verdes per a mapes adjacents.


METAR-TAF: